Airfield :
LOGIN :

Register | Disclaimer

   EN    FR    IT 

 










Legend :    VFR   Marginal VFR   IFR   Intensive IFR   Very Intensive IFR
Visi :
Ceiling :
>= 8 km
>= 3000ft
5 to 8 km
1000 to 3000 ft
1500m to 5 km
500 to 1000 ft
800 to 1500m
200 to 500 ft
< 800m
< 200 ft
Symbols :   Thunderstorms  Fog  Heavy snow  Heavy precipitations  Wind > 20 kt
SIGMETs :     Misc.  Thunderstorms  Icing  Turbulence  Mountain Waves  Volcanic Ashes






- Airport Elevation : 1260 ft
- IATA code : LDE


LFBT - Tarbes / Ossun

CURRENT METAR :
  • 091430Z AUTO 07007KT 030V110 9999 ///TCU 23/08 Q1018

EXPIRED METARs :
  • 091400Z AUTO 06006KT 350V130 CAVOK 23/09 Q1018
  • 091330Z AUTO 04008KT 360V070 CAVOK 23/10 Q1018
  • 091300Z AUTO 04007KT 360V110 CAVOK 23/08 Q1019
  • 091230Z AUTO 05007KT 350V110 CAVOK 22/08 Q1019
  • 091200Z AUTO 06005KT 310V120 CAVOK 22/10 Q1019

Expired Forecast.



MET'MAP, your aeronautical weather chart ! - Copyright ORBIFLY December 2007 - Disclaimer

ORBIFLY MET'MAP TEAM :

Programming & Development : Alexandra Zaïnal
Concept & original design : Baudouin d'Aumeries
Assistance for programming : Marc-Olivier Méhu
Technical & hardware support : Manuel Goepfert

Contact : metmap@orbifly.com




SOURCES & CREDITS :

   NOAA